Latest Coastal Weather Observations for Cato Island

IDQ60701

Issued at 3:11 am EST Saturday 24 June 2017 (issued every 10 minutes, with the page automatically refreshed every 10 minutes)

About coastal observations | Map of coastal stations | Coastal observations for QLD | Marine services | Other Formats
Station Details ID: 200601 Name: CATO ISLAND Lat: -23.25 Lon: 155.54 Height: 6.3 m
Data from the previous 72 hours. | See also: Recent months for locations in Queensland
Date/Time
EST
Temp
°C
Wind Pressure Rain since
9am
mm
Weather Cloud Vis
km
Sea
Height
m
Swell
Dir  Spd
kts
Gust
kts
hPa Trend Height
m
Period
s
Dir
24/03:00am 21.3 ESE 9 10 1016.7 - - - - - - - - -
24/02:30am 21.0 SE 7 8 1017.1 - - - - - - - - -
24/02:00am 21.5 SE 4 7 1017.3 - - - - - - - - -
24/01:30am 21.4 ESE 5 6 1017.5 - - - - - - - - -
24/01:00am 21.5 SE 7 10 1017.9 - - - - - - - - -
24/12:30am 21.6 SE 10 12 1018.2 - - - - - - - - -
24/12:00am 21.5 SE 4 5 1018.5 - - - - - - - - -
 
Date/Time
EST
Temp
°C
Wind Pressure Rain since
9am
mm
Weather Cloud Vis
km
Sea
Height
m
Swell
Dir  Spd
kts
Gust
kts
hPa Trend Height
m
Period
s
Dir
23/11:30pm 21.4 SE 12 14 1018.6 - - - - - - - - -
23/11:00pm 21.6 SSE 11 16 1018.7 - - - - - - - - -
23/10:00pm 21.9 SSE 8 10 1019.1 - - - - - - - - -
23/09:30pm 21.8 S 10 13 1019.2 - - - - - - - - -
23/09:00pm 21.3 S 11 13 1019.1 - - - - - - - - -
23/08:30pm 20.7 SSW 13 14 1019.0 - - - - - - - - -
23/08:00pm 21.8 S 10 13 1018.9 - - - - - - - - -
23/07:30pm 21.3 SSE 12 17 1018.7 - - - - - - - - -
23/07:00pm 21.3 ESE 9 12 1018.6 - - - - - - - - -
23/06:30pm 21.3 E 11 13 1018.2 - - - - - - - - -
23/06:00pm 21.2 E 13 15 1017.9 - - - - - - - - -
23/05:30pm 21.6 SE 14 16 1017.5 - - - - - - - - -
23/05:00pm 21.8 SE 15 17 1017.2 - - - - - - - - -
23/04:30pm 21.4 SSE 10 13 1017.3 - - - - - - - - -
23/04:00pm 22.1 S 10 12 1017.0 - - - - - - - - -
23/03:30pm 22.0 S 11 13 1017.0 - - - - - - - - -
23/03:00pm 22.2 S 11 13 1017.0 - - - - - - - - -
23/02:30pm 22.2 S 12 14 1017.0 - - - - - - - - -
23/02:00pm 22.7 S 11 14 1017.2 - - - - - - - - -
23/01:30pm 22.7 S 11 13 1017.4 - - - - - - - - -
23/01:00pm 22.9 S 12 14 1017.6 - - - - - - - - -
23/12:30pm 22.6 SSE 11 14 1018.1 - - - - - - - - -
23/12:00pm 22.6 S 10 13 1018.5 - - - - - - - - -
23/11:30am 22.7 SSE 11 13 1019.0 - - - - - - - - -
23/11:00am 22.9 SSE 11 14 1019.6 - - - - - - - - -
23/10:30am 23.0 SE 11 14 1019.9 - - - - - - - - -
23/10:00am 23.0 SE 11 - 1020.2 - - - - - - - - -
23/09:30am 22.9 SE 12 15 1020.2 - - - - - - - - -
23/09:00am 22.9 SE 14 16 1020.3 - - - - - - - - -
23/08:30am 22.8 SSE 12 15 1020.4 - - - - - - - - -
23/08:00am 22.7 SE 11 13 1020.3 - - - - - - - - -
23/07:30am 22.4 SE 16 19 1020.0 - - - - - - - - -
23/07:00am 22.1 SE 19 22 1019.7 - - - - - - - - -
23/06:30am 22.0 SSE 13 17 1019.6 - - - - - - - - -
23/06:00am 22.1 SSE 18 21 1019.3 - - - - - - - - -
23/05:30am 22.2 SSE 17 20 1019.0 - - - - - - - - -
23/05:00am 22.1 SSE 13 16 1018.9 - - - - - - - - -
23/04:30am 22.1 SE 17 20 1018.8 - - - - - - - - -
23/04:00am 22.3 SE 22 25 1018.6 - - - - - - - - -
23/03:30am 22.2 SSE 20 24 1018.8 - - - - - - - - -
23/03:00am 22.1 SE 20 23 1018.8 - - - - - - - - -
23/02:30am 20.9 SSE 9 14 1019.1 - - - - - - - - -
23/02:00am 21.7 S 14 17 1019.2 - - - - - - - - -
23/01:30am 21.9 SSE 14 16 1019.4 - - - - - - - - -
23/01:00am 21.8 SSE 16 18 1019.8 - - - - - - - - -
23/12:30am 21.9 SSE 17 19 1020.1 - - - - - - - - -
23/12:00am 22.1 SSE 20 22 1020.1 - - - - - - - - -
 
Date/Time
EST
Temp
°C
Wind Pressure Rain since
9am
mm
Weather Cloud Vis
km
Sea
Height
m
Swell
Dir  Spd
kts
Gust
kts
hPa Trend Height
m
Period
s
Dir
22/11:30pm 22.1 SSE 19 22 1020.2 - - - - - - - - -
22/11:00pm 22.0 S 17 21 1020.3 - - - - - - - - -
22/10:30pm 22.1 SSE 17 22 1020.6 - - - - - - - - -
22/10:00pm 22.1 S 20 23 1020.8 - - - - - - - - -
22/09:30pm 22.1 S 21 25 1020.6 - - - - - - - - -
22/09:00pm 22.1 S 21 25 1020.8 - - - - - - - - -
22/08:30pm 22.2 S 22 25 1020.8 - - - - - - - - -
22/08:00pm 22.2 S 23 29 1020.7 - - - - - - - - -
22/07:30pm 22.3 S 23 29 1020.3 - - - - - - - - -
22/07:00pm 22.3 S 24 28 1020.2 - - - - - - - - -
22/06:30pm 22.1 SSE 22 25 1019.9 - - - - - - - - -
22/06:14pm 22.2 SE 23 25 1019.6 - - - - - - - - -
22/06:00pm 21.2 S 22 26 1019.6 - - - - - - - - -
22/05:30pm 22.3 SSE 21 26 1019.3 - - - - - - - - -
22/05:00pm 22.2 S 20 23 1019.1 - - - - - - - - -
22/04:30pm 22.3 SSE 19 22 1019.2 - - - - - - - - -
22/04:00pm 22.4 SSE 18 21 1019.0 - - - - - - - - -
22/03:30pm 22.3 SSE 20 23 1018.8 - - - - - - - - -
22/03:00pm 22.5 SSE 18 21 1018.9 - - - - - - - - -
22/02:30pm 22.5 S 19 23 1018.8 - - - - - - - - -
22/02:00pm 22.5 SSE 19 23 1019.0 - - - - - - - - -
22/01:30pm 22.6 S 20 23 1019.2 - - - - - - - - -
22/01:00pm 22.7 S 20 23 1019.5 - - - - - - - - -
22/12:30pm 22.7 S 18 22 1019.7 - - - - - - - - -
22/12:00pm 22.7 S 19 21 1019.9 - - - - - - - - -
22/11:30am 22.8 S 18 21 1020.3 - - - - - - - - -
22/11:00am 22.7 S 19 22 1020.6 - - - - - - - - -
22/10:30am 22.7 S 19 23 1021.0 - - - - - - - - -
22/10:00am 22.7 S 19 22 1021.3 - - - - - - - - -
22/09:30am 22.8 S 18 22 1021.5 - - - - - - - - -
22/09:00am 22.4 S 19 23 1021.5 - - - - - - - - -
22/08:30am 22.4 S 21 25 1021.2 - - - - - - - - -
22/08:00am 22.4 S 21 25 1021.0 - - - - - - - - -
22/07:30am 22.3 S 18 21 1020.7 - - - - - - - - -
22/07:00am 22.4 SSE 19 23 1020.4 - - - - - - - - -
22/06:30am 22.2 SSE 20 23 1020.0 - - - - - - - - -
22/06:00am 22.3 SSE 18 21 1019.8 - - - - - - - - -
22/05:30am 22.1 SSE 18 21 1019.7 - - - - - - - - -
22/05:00am 21.5 SSE 19 25 1019.5 - - - - - - - - -
22/04:30am 21.9 SSE 14 18 1019.4 - - - - - - - - -
22/04:00am 21.8 SSE 16 19 1019.2 - - - - - - - - -
22/03:30am 21.1 S 19 24 1019.5 - - - - - - - - -
22/03:00am 22.1 S 19 23 1019.4 - - - - - - - - -
22/02:30am 22.2 S 19 22 1019.4 - - - - - - - - -
22/02:00am 22.2 S 21 25 1019.4 - - - - - - - - -
22/01:30am 22.2 S 20 24 1019.7 - - - - - - - - -
22/01:00am 21.7 S 22 28 1019.5 - - - - - - - - -
22/12:40am 22.0 S 18 28 1019.3 - - - - - - - - -
22/12:30am 21.4 S 19 26 1019.4 - - - - - - - - -
22/12:00am 22.2 S 19 22 1019.7 - - - - - - - - -
 
Date/Time
EST
Temp
°C
Wind Pressure Rain since
9am
mm
Weather Cloud Vis
km
Sea
Height
m
Swell
Dir  Spd
kts
Gust
kts
hPa Trend Height
m
Period
s
Dir
21/11:30pm 22.0 S 18 21 1019.8 - - - - - - - - -
21/11:00pm 22.1 S 21 25 1020.0 - - - - - - - - -
21/10:30pm 22.2 S 24 28 1020.2 - - - - - - - - -
21/10:00pm 21.8 S 22 26 1020.2 - - - - - - - - -
21/09:30pm 22.2 S 24 29 1020.3 - - - - - - - - -
21/09:00pm 22.4 S 20 24 1020.3 - - - - - - - - -
21/08:30pm 22.3 S 21 25 1020.3 - - - - - - - - -
21/08:12pm 22.2 S 20 31 1020.0 - - - - - - - - -
21/08:00pm 22.2 S 23 29 1020.1 - - - - - - - - -
21/07:30pm 22.3 S 21 25 1019.8 - - - - - - - - -
21/07:00pm 22.4 S 20 23 1019.4 - - - - - - - - -
21/06:30pm 22.3 S 23 28 1019.1 - - - - - - - - -
21/06:00pm 22.3 S 24 30 1018.8 - - - - - - - - -
21/05:30pm 22.2 S 24 30 1018.5 - - - - - - - - -
21/05:00pm 22.4 S 23 28 1018.0 - - - - - - - - -
21/04:30pm 22.3 S 21 26 1017.8 - - - - - - - - -
21/04:00pm 22.4 S 23 27 1017.4 - - - - - - - - -
21/03:30pm 22.4 S 23 28 1017.1 - - - - - - - - -
21/03:00pm 22.3 S 22 25 1017.2 - - - - - - - - -
21/02:30pm 22.5 S 22 24 1017.3 - - - - - - - - -
21/02:00pm 22.6 S 23 26 1017.3 - - - - - - - - -
21/01:30pm 22.5 S 21 24 1017.5 - - - - - - - - -
21/01:00pm 22.7 S 20 23 1017.5 - - - - - - - - -
21/12:30pm 22.5 S 20 23 1017.8 - - - - - - - - -
21/12:00pm 22.2 S 21 25 1018.2 - - - - - - - - -
21/11:30am 22.8 S 18 20 1018.5 - - - - - - - - -
21/11:00am 22.8 S 19 22 1019.0 - - - - - - - - -
21/10:30am 22.4 S 14 20 1019.4 - - - - - - - - -
21/10:00am 22.7 S 19 22 1019.5 - - - - - - - - -
21/09:30am 22.3 S 20 25 1019.5 - - - - - - - - -
21/09:00am 22.4 S 19 23 1019.4 - - - - - - - - -
21/08:30am 22.4 S 20 23 1019.3 - - - - - - - - -
21/08:00am 22.3 S 21 24 1019.0 - - - - - - - - -
21/07:30am 22.2 S 23 26 1018.7 - - - - - - - - -
21/07:00am 21.9 S 22 25 1018.5 - - - - - - - - -
21/06:30am 22.0 S 23 27 1018.1 - - - - - - - - -
21/06:00am 22.0 S 23 26 1017.8 - - - - - - - - -
21/05:30am 21.9 S 22 26 1017.4 - - - - - - - - -
21/05:00am 21.4 S 21 26 1017.3 - - - - - - - - -
21/04:30am 21.8 S 21 25 1016.9 - - - - - - - - -
21/04:00am 22.0 S 22 26 1016.6 - - - - - - - - -
21/03:30am 21.9 S 21 23 1016.7 - - - - - - - - -

Other Formats:

Comma delimited format used in spreadsheet applications
http://www.bom.gov.au/fwo/IDQ60701/IDQ60701.94394.axf

JavaScript Object Notation format (JSON) in row-major order
http://www.bom.gov.au/fwo/IDQ60701/IDQ60701.94394.json